Etusivu
METAR-TAF:

METAR-TAF

Lentoasemat :

Beirut, Libanon

Leveyspiiri: 33-49N, Pituuspiiri: 035-29E, korkeus merenpinnasta: 29 m

Tämänhetkinen sää

Tämä raportti tehtiin 30 minuuttia sitten, kello 11.00 UTC
Tuuli 4 kn luoteesta, vaihdellen lännen/luoteen ja pohjoisen välillä
Lämpötila 21°C
Kosteus 33%
Ilmanpaine 1024 hPa
Näkyvyys: 7000 m
Muutamia pilviä 20000 ft:n korkeudessa

METAR: OLBA 111100Z 32004KT 300V360 7000 FEW200 21/04 Q1024 NOSIG

Aika: 13:30 (11:30 UTC)

Sääennuste

Tämä raportti tehtiin 7 tuntia ja 30 minuuttia sitten, kello 04.00 UTC
Ennuste voimassa 11. päivästä klo 06 UTC - 12. päivään klo 12 UTC
Tuuli 15 kn pohjoisesta/koillisesta
Näkyvyys 10 km tai enemmän
Tulossa
11. päivästä klo 18 UTC - 11. päivään klo 20 UTC
Tuuli 6 kn idästä/kaakosta
Tulossa
12. päivästä klo 06 UTC - 12. päivään klo 08 UTC
Tuuli 8 kn pohjoisen/luoteesta

TAF: OLBA 110400Z 1106/1212 02015KT 9999 NSC BECMG 1118/1120 11006KT BECMG 1206/1208 33008KT

Säähavainnot ja -ennusteet yli 4000 lentoasemalta (METAR- ja TAF-raportit).

Käytössä olevat sääasemat on merkitty karttaan keltaisilla ja punaisilla pisteillä.

Aseta hiiri pisteen päälle nähdäksesi sääaseman nimen.

Klikkaa sitten nähdäksesi säähavainnot ja -ennusteet.

Kartan vaihtaminen: klikkaa mustalla rastilla varustettuja vihreitä pisteitä, niin voit zoomata sisään; viivalla varustettua vihreää pistettä, niin voit zoomata ulos tai vihreitä nuolia, niin pääset viereisille kartoille.


METAR-TAF: